createdAt,value
2019-04-28T00:00:21.427Z,0.00
2019-04-28T00:01:20.991Z,0.00
2019-04-28T00:02:20.579Z,0.00
2019-04-28T00:03:20.756Z,0.00
2019-04-28T00:04:19.252Z,0.00
2019-04-28T00:05:20.713Z,0.00
2019-04-28T00:06:20.929Z,0.00
2019-04-28T00:07:18.951Z,0.00
2019-04-28T00:08:20.352Z,0.00
2019-04-28T00:09:18.747Z,0.00
2019-04-28T00:10:18.647Z,0.00
2019-04-28T00:11:18.608Z,0.00
2019-04-28T00:12:18.447Z,0.00
2019-04-28T00:13:18.351Z,0.00
2019-04-28T00:14:18.242Z,0.00
2019-04-28T00:15:18.144Z,0.00
2019-04-28T00:16:18.041Z,0.00
2019-04-28T00:17:17.947Z,0.00
2019-04-28T00:18:17.840Z,0.00
2019-04-28T00:19:17.739Z,0.00
2019-04-28T00:20:17.637Z,0.00
2019-04-28T00:21:17.535Z,0.00
2019-04-28T00:22:17.438Z,0.00
2019-04-28T00:23:17.334Z,0.00
2019-04-28T00:24:17.232Z,0.00
2019-04-28T00:25:17.132Z,0.00
2019-04-28T00:26:17.032Z,0.00
2019-04-28T00:27:16.930Z,0.00
2019-04-28T00:28:16.827Z,0.00
2019-04-28T00:29:16.729Z,0.00
2019-04-28T00:30:16.627Z,0.00
2019-04-28T00:31:16.593Z,0.00
2019-04-28T00:32:16.424Z,0.00
2019-04-28T00:33:16.323Z,0.00
2019-04-28T00:34:16.227Z,0.00
2019-04-28T00:35:16.128Z,0.00
2019-04-28T00:36:16.023Z,0.00
2019-04-28T00:37:15.923Z,0.00
2019-04-28T00:38:15.824Z,0.00
2019-04-28T00:39:15.721Z,0.00
2019-04-28T00:40:15.620Z,0.00
2019-04-28T00:41:15.518Z,0.00
2019-04-28T00:42:15.418Z,0.00
2019-04-28T00:43:15.318Z,0.00
2019-04-28T00:44:15.217Z,0.00
2019-04-28T00:45:15.117Z,0.00
2019-04-28T00:46:15.015Z,0.00
2019-04-28T00:47:14.913Z,0.00
2019-04-28T00:48:14.815Z,0.00
2019-04-28T00:49:14.712Z,0.00
2019-04-28T00:50:14.612Z,0.00
2019-04-28T00:51:14.560Z,0.00
2019-04-28T00:52:14.499Z,0.00
2019-04-28T00:53:14.310Z,0.00
2019-04-28T00:54:14.209Z,0.00
2019-04-28T00:55:14.107Z,0.00
2019-04-28T00:56:14.007Z,0.00
2019-04-28T00:57:13.908Z,0.00
2019-04-28T00:58:13.804Z,0.00
2019-04-28T00:59:13.703Z,0.00
2019-04-28T01:00:13.602Z,0.00
2019-04-28T01:01:13.501Z,0.00
2019-04-28T01:02:13.401Z,0.00
2019-04-28T01:03:13.302Z,0.00
2019-04-28T01:04:13.200Z,0.00
2019-04-28T01:05:13.097Z,0.00
2019-04-28T01:06:14.059Z,0.00
2019-04-28T01:07:12.898Z,0.00
2019-04-28T01:08:12.800Z,0.00
2019-04-28T01:09:12.696Z,0.00
2019-04-28T01:10:12.594Z,0.00
2019-04-28T01:11:12.534Z,0.00
2019-04-28T01:12:12.415Z,0.00
2019-04-28T01:13:12.290Z,0.00
2019-04-28T01:14:12.189Z,0.00
2019-04-28T01:15:12.091Z,0.00
2019-04-28T01:16:11.991Z,0.00
2019-04-28T01:17:11.886Z,0.00
2019-04-28T01:18:11.786Z,0.00
2019-04-28T01:19:11.686Z,0.00
2019-04-28T01:20:11.584Z,0.00
2019-04-28T01:21:11.482Z,0.00
2019-04-28T01:22:11.382Z,0.00
2019-04-28T01:23:11.281Z,0.00
2019-04-28T01:24:11.798Z,0.00
2019-04-28T01:25:11.080Z,0.00
2019-04-28T01:26:10.977Z,0.00
2019-04-28T01:27:10.878Z,0.00
2019-04-28T01:28:10.779Z,0.00
2019-04-28T01:29:10.676Z,0.00
2019-04-28T01:30:11.309Z,0.00
2019-04-28T01:31:10.512Z,0.00
2019-04-28T01:32:10.509Z,0.00
2019-04-28T01:33:10.271Z,0.00
2019-04-28T01:34:10.388Z,0.00
2019-04-28T01:35:10.071Z,0.00
2019-04-28T01:36:10.387Z,0.00
2019-04-28T01:37:09.867Z,0.00
2019-04-28T01:38:09.911Z,0.00
2019-04-28T01:39:10.092Z,0.00
2019-04-28T01:40:09.613Z,0.00
2019-04-28T01:41:09.874Z,0.00
2019-04-28T01:42:10.662Z,0.00
2019-04-28T01:43:09.724Z,0.00
2019-04-28T01:44:10.256Z,0.00
2019-04-28T01:45:10.565Z,0.00
2019-04-28T01:46:10.157Z,0.00
2019-04-28T01:47:10.496Z,0.00
2019-04-28T01:48:10.115Z,0.00
2019-04-28T01:49:09.636Z,0.00
2019-04-28T01:50:10.235Z,0.00
2019-04-28T01:51:09.509Z,0.00
2019-04-28T01:52:10.257Z,0.00
2019-04-28T01:53:09.679Z,0.00
2019-04-28T01:54:09.798Z,0.00
2019-04-28T01:55:09.966Z,0.00
2019-04-28T01:56:07.944Z,0.00
2019-04-28T01:57:09.903Z,0.00
2019-04-28T01:58:09.478Z,0.00
2019-04-28T01:59:07.641Z,0.00
2019-04-28T02:00:21.385Z,0.00
2019-04-28T02:01:07.437Z,0.00
2019-04-28T02:02:07.337Z,0.00
2019-04-28T02:03:07.236Z,0.00
2019-04-28T02:04:07.131Z,0.00
2019-04-28T02:05:07.030Z,0.00
2019-04-28T02:06:06.930Z,0.00
2019-04-28T02:07:06.827Z,0.00
2019-04-28T02:08:06.727Z,0.00
2019-04-28T02:09:06.627Z,0.00
2019-04-28T02:10:06.522Z,0.00
2019-04-28T02:11:06.468Z,0.00
2019-04-28T02:12:06.400Z,0.00
2019-04-28T02:13:06.219Z,0.00
2019-04-28T02:14:06.116Z,0.00
2019-04-28T02:15:06.019Z,0.00
2019-04-28T02:16:05.919Z,0.00
2019-04-28T02:17:05.815Z,0.00
2019-04-28T02:18:05.713Z,0.00
2019-04-28T02:19:05.612Z,0.00
2019-04-28T02:20:05.512Z,0.00
2019-04-28T02:21:05.409Z,0.00
2019-04-28T02:22:05.306Z,0.00
2019-04-28T02:23:05.208Z,0.00
2019-04-28T02:24:05.101Z,0.00
2019-04-28T02:25:04.999Z,0.00
2019-04-28T02:26:04.904Z,0.00
2019-04-28T02:27:04.799Z,0.00
2019-04-28T02:28:04.702Z,0.00
2019-04-28T02:29:04.596Z,0.00
2019-04-28T02:30:04.502Z,0.00
2019-04-28T02:31:04.441Z,0.00
2019-04-28T02:32:04.377Z,0.00
2019-04-28T02:33:04.193Z,0.00
2019-04-28T02:34:04.090Z,0.00
2019-04-28T02:35:03.991Z,0.00
2019-04-28T02:36:03.889Z,0.00
2019-04-28T02:37:03.785Z,0.00
2019-04-28T02:38:03.698Z,0.00
2019-04-28T02:39:03.581Z,0.00
2019-04-28T02:40:03.854Z,0.00
2019-04-28T02:41:03.377Z,0.00
2019-04-28T02:42:03.275Z,0.00
2019-04-28T02:43:03.177Z,0.00
2019-04-28T02:44:03.075Z,0.00
2019-04-28T02:45:02.969Z,0.00
2019-04-28T02:46:02.868Z,0.00
2019-04-28T02:47:02.773Z,0.00
2019-04-28T02:48:02.667Z,0.00
2019-04-28T02:49:02.564Z,0.00
2019-04-28T02:50:02.461Z,0.00
2019-04-28T02:51:02.409Z,0.00
2019-04-28T02:52:03.146Z,0.00
2019-04-28T02:53:02.263Z,0.00
2019-04-28T02:54:02.056Z,0.00
2019-04-28T02:55:03.310Z,0.00
2019-04-28T02:56:01.850Z,0.00
2019-04-28T02:57:01.759Z,0.00
2019-04-28T02:58:01.801Z,0.00
2019-04-28T02:59:01.547Z,0.00
2019-04-28T03:00:01.448Z,0.00
2019-04-28T03:01:12.548Z,0.00
2019-04-28T03:02:01.240Z,0.00
2019-04-28T03:03:01.553Z,0.00
2019-04-28T03:04:01.037Z,0.00
2019-04-28T03:05:00.936Z,0.00
2019-04-28T03:06:01.535Z,0.00
2019-04-28T03:07:01.347Z,0.00
2019-04-28T03:08:01.023Z,0.00
2019-04-28T03:09:00.527Z,0.00
2019-04-28T03:10:03.197Z,0.00
2019-04-28T03:11:01.114Z,0.00
2019-04-28T03:12:01.506Z,0.00
2019-04-28T03:13:00.976Z,0.00
2019-04-28T03:14:00.921Z,0.00
2019-04-28T03:15:00.660Z,0.00
2019-04-28T03:16:01.578Z,0.00
2019-04-28T03:17:00.841Z,0.00
2019-04-28T03:18:01.693Z,0.00
2019-04-28T03:19:01.165Z,0.00
2019-04-28T03:20:01.122Z,0.00
2019-04-28T03:21:01.643Z,0.00
2019-04-28T03:22:01.308Z,0.00
2019-04-28T03:23:00.980Z,4.00
2019-04-28T03:24:01.109Z,4.00
2019-04-28T03:25:00.912Z,4.00
2019-04-28T03:26:01.222Z,4.00
2019-04-28T03:27:00.602Z,4.00
2019-04-28T03:28:00.589Z,8.00
2019-04-28T03:29:00.805Z,4.00
2019-04-28T03:30:00.817Z,8.00
2019-04-28T03:31:03.251Z,4.00
2019-04-28T03:32:18.302Z,8.00
2019-04-28T03:33:04.872Z,8.00
2019-04-28T03:33:57.977Z,12.00
2019-04-28T03:35:02.274Z,8.00
2019-04-28T03:35:57.790Z,8.00
2019-04-28T03:37:00.218Z,16.00
2019-04-28T03:37:57.572Z,16.00
2019-04-28T03:38:57.467Z,16.00
2019-04-28T03:39:57.361Z,24.00
2019-04-28T03:40:57.263Z,24.00
2019-04-28T03:41:57.159Z,24.00
2019-04-28T03:42:59.374Z,28.00
2019-04-28T03:43:56.957Z,32.00
2019-04-28T03:44:56.854Z,36.00
2019-04-28T03:45:56.751Z,40.00
2019-04-28T03:46:56.652Z,36.00
2019-04-28T03:47:56.550Z,40.00
2019-04-28T03:48:56.447Z,40.00
2019-04-28T03:49:56.362Z,48.00
2019-04-28T03:50:56.280Z,44.00
2019-04-28T03:51:56.141Z,44.00
2019-04-28T03:52:56.038Z,52.00
2019-04-28T03:53:55.936Z,48.00
2019-04-28T03:54:55.831Z,52.00
2019-04-28T03:55:55.729Z,64.00
2019-04-28T03:56:55.625Z,72.00
2019-04-28T03:57:55.524Z,76.00
2019-04-28T03:58:55.442Z,76.00
2019-04-28T03:59:55.318Z,84.00
2019-04-28T04:00:55.217Z,76.00
2019-04-28T04:01:59.385Z,84.00
2019-04-28T04:02:55.012Z,92.00
2019-04-28T04:03:54.909Z,80.00
2019-04-28T04:04:54.808Z,96.00
2019-04-28T04:05:54.705Z,108.00
2019-04-28T04:06:54.602Z,116.00
2019-04-28T04:07:54.498Z,124.00
2019-04-28T04:08:54.397Z,120.00
2019-04-28T04:09:54.326Z,140.00
2019-04-28T04:10:54.254Z,124.00
2019-04-28T04:11:54.087Z,116.00
2019-04-28T04:12:53.989Z,136.00
2019-04-28T04:13:53.898Z,128.00
2019-04-28T04:14:53.783Z,180.00
2019-04-28T04:15:54.404Z,204.00
2019-04-28T04:16:53.581Z,200.00
2019-04-28T04:17:53.474Z,180.00
2019-04-28T04:18:53.891Z,204.00
2019-04-28T04:19:53.271Z,236.00
2019-04-28T04:20:53.165Z,244.00
2019-04-28T04:21:53.130Z,324.00
2019-04-28T04:22:52.964Z,336.00
2019-04-28T04:23:52.858Z,376.00
2019-04-28T04:24:52.759Z,360.00
2019-04-28T04:25:52.653Z,436.00
2019-04-28T04:26:52.555Z,392.00
2019-04-28T04:27:52.451Z,364.00
2019-04-28T04:28:52.348Z,380.00
2019-04-28T04:29:52.293Z,372.00
2019-04-28T04:30:52.160Z,388.00
2019-04-28T04:31:52.040Z,424.00
2019-04-28T04:32:51.937Z,404.00
2019-04-28T04:33:51.834Z,476.00
2019-04-28T04:34:51.732Z,468.00
2019-04-28T04:35:51.932Z,492.00
2019-04-28T04:36:51.527Z,432.00
2019-04-28T04:37:51.422Z,396.00
2019-04-28T04:38:51.745Z,320.00
2019-04-28T04:39:51.457Z,228.00
2019-04-28T04:40:51.374Z,212.00
2019-04-28T04:41:51.022Z,216.00
2019-04-28T04:42:50.913Z,212.00
2019-04-28T04:43:51.511Z,208.00
2019-04-28T04:44:50.715Z,208.00
2019-04-28T04:45:50.604Z,260.00
2019-04-28T04:46:50.850Z,296.00
2019-04-28T04:47:50.474Z,328.00
2019-04-28T04:48:50.855Z,528.00
2019-04-28T04:49:50.558Z,632.00
2019-04-28T04:50:51.089Z,788.00
2019-04-28T04:51:50.848Z,1032.00
2019-04-28T04:52:50.276Z,960.00
2019-04-28T04:53:51.073Z,1196.00
2019-04-28T04:54:51.173Z,1712.00
2019-04-28T04:55:50.504Z,1876.00
2019-04-28T04:56:50.091Z,1984.00
2019-04-28T04:57:50.707Z,2300.00
2019-04-28T04:58:50.441Z,2368.00
2019-04-28T04:59:49.993Z,2640.00
2019-04-28T05:00:51.079Z,2820.00
2019-04-28T05:01:50.274Z,2864.00
2019-04-28T05:02:52.897Z,2816.00
2019-04-28T05:03:49.785Z,2532.00
2019-04-28T05:04:50.539Z,2372.00
2019-04-28T05:05:50.142Z,2612.00
2019-04-28T05:06:49.670Z,2684.00
2019-04-28T05:07:48.347Z,2260.00
2019-04-28T05:08:49.505Z,1964.00
2019-04-28T05:09:49.580Z,1928.00
2019-04-28T05:10:48.032Z,1716.00
2019-04-28T05:11:49.786Z,1552.00
2019-04-28T05:12:47.825Z,1492.00
2019-04-28T05:13:47.723Z,1420.00
2019-04-28T05:14:49.378Z,1376.00
2019-04-28T05:15:47.518Z,1360.00
2019-04-28T05:16:47.421Z,1500.00
2019-04-28T05:17:47.312Z,1504.00
2019-04-28T05:18:47.210Z,1224.00
2019-04-28T05:19:47.104Z,1396.00
2019-04-28T05:20:47.009Z,1328.00
2019-04-28T05:21:46.902Z,1384.00
2019-04-28T05:22:46.801Z,1212.00
2019-04-28T05:23:46.699Z,1268.00
2019-04-28T05:24:50.377Z,1312.00
2019-04-28T05:25:46.492Z,1016.00
2019-04-28T05:26:47.549Z,1120.00
2019-04-28T05:27:46.284Z,1156.00
2019-04-28T05:28:51.423Z,1300.00
2019-04-28T05:29:46.121Z,844.00
2019-04-28T05:30:45.979Z,948.00
2019-04-28T05:31:45.875Z,788.00
2019-04-28T05:32:53.605Z,816.00
2019-04-28T05:33:45.672Z,784.00
2019-04-28T05:34:46.758Z,872.00
2019-04-28T05:35:45.467Z,916.00
2019-04-28T05:36:45.361Z,820.00
2019-04-28T05:37:45.267Z,776.00
2019-04-28T05:38:45.159Z,704.00
2019-04-28T05:39:45.055Z,768.00
2019-04-28T05:40:44.958Z,872.00
2019-04-28T05:41:44.852Z,864.00
2019-04-28T05:42:44.747Z,1080.00
2019-04-28T05:43:44.647Z,1212.00
2019-04-28T05:44:44.544Z,1088.00
2019-04-28T05:45:44.444Z,1276.00
2019-04-28T05:46:44.361Z,1472.00
2019-04-28T05:47:44.234Z,1868.00
2019-04-28T05:48:44.194Z,2472.00
2019-04-28T05:49:44.031Z,2088.00
2019-04-28T05:50:43.929Z,1512.00
2019-04-28T05:51:43.826Z,1692.00
2019-04-28T05:52:43.722Z,1780.00
2019-04-28T05:53:43.623Z,2184.00
2019-04-28T05:54:43.518Z,1956.00
2019-04-28T05:55:43.414Z,2000.00
2019-04-28T05:56:43.313Z,1896.00
2019-04-28T05:57:43.209Z,1632.00
2019-04-28T05:58:43.108Z,1544.00
2019-04-28T05:59:43.005Z,1892.00
2019-04-28T06:00:42.903Z,1448.00
2019-04-28T06:01:42.801Z,1776.00
2019-04-28T06:02:54.098Z,1816.00
2019-04-28T06:03:42.596Z,1840.00
2019-04-28T06:04:42.494Z,1716.00
2019-04-28T06:05:42.389Z,1716.00
2019-04-28T06:06:42.287Z,1760.00
2019-04-28T06:07:42.183Z,1968.00
2019-04-28T06:08:42.107Z,2160.00
2019-04-28T06:09:41.978Z,2552.00
2019-04-28T06:10:41.882Z,3144.00
2019-04-28T06:11:41.781Z,3304.00
2019-04-28T06:12:41.672Z,3536.00
2019-04-28T06:13:41.569Z,3488.00
2019-04-28T06:14:41.466Z,3208.00
2019-04-28T06:15:41.362Z,3188.00
2019-04-28T06:16:41.261Z,2540.00
2019-04-28T06:17:41.162Z,2660.00
2019-04-28T06:18:42.214Z,3508.00
2019-04-28T06:19:40.953Z,3564.00
2019-04-28T06:20:40.850Z,3852.00
2019-04-28T06:21:40.748Z,3624.00
2019-04-28T06:22:40.652Z,3280.00
2019-04-28T06:23:40.544Z,3300.00
2019-04-28T06:24:40.439Z,3620.00
2019-04-28T06:25:40.338Z,3684.00
2019-04-28T06:26:40.237Z,3748.00
2019-04-28T06:27:40.150Z,4572.00
2019-04-28T06:28:40.093Z,3908.00
2019-04-28T06:29:39.930Z,4908.00
2019-04-28T06:30:39.827Z,5416.00
2019-04-28T06:31:39.728Z,5824.00
2019-04-28T06:32:39.624Z,6728.00
2019-04-28T06:33:39.522Z,8500.00
2019-04-28T06:34:39.422Z,7908.00
2019-04-28T06:35:39.317Z,7768.00
2019-04-28T06:36:39.214Z,8864.00
2019-04-28T06:37:39.112Z,9344.00
2019-04-28T06:38:39.011Z,9868.00
2019-04-28T06:39:38.913Z,8208.00
2019-04-28T06:40:38.804Z,8528.00
2019-04-28T06:41:38.704Z,8656.00
2019-04-28T06:42:38.602Z,7516.00
2019-04-28T06:43:38.500Z,7412.00
2019-04-28T06:44:38.398Z,6068.00
2019-04-28T06:45:38.294Z,6612.00
2019-04-28T06:46:38.198Z,7480.00
2019-04-28T06:47:38.134Z,6104.00
2019-04-28T06:48:38.060Z,5840.00
2019-04-28T06:49:37.892Z,5380.00
2019-04-28T06:50:37.788Z,7396.00
2019-04-28T06:51:37.686Z,7664.00
2019-04-28T06:52:37.584Z,9720.00
2019-04-28T06:53:37.482Z,9832.00
2019-04-28T06:54:37.383Z,11380.00
2019-04-28T06:55:37.280Z,9552.00
2019-04-28T06:56:37.180Z,7704.00
2019-04-28T06:57:37.080Z,6668.00
2019-04-28T06:58:36.976Z,8432.00
2019-04-28T06:59:36.880Z,9592.00
2019-04-28T07:00:36.777Z,9236.00
2019-04-28T07:01:36.671Z,6232.00
2019-04-28T07:02:36.573Z,3676.00
2019-04-28T07:03:36.469Z,4804.00
2019-04-28T07:04:36.367Z,7020.00
2019-04-28T07:05:36.267Z,8200.00
2019-04-28T07:06:36.167Z,7100.00
2019-04-28T07:07:36.095Z,5652.00
2019-04-28T07:08:36.013Z,5584.00
2019-04-28T07:09:35.862Z,3688.00
2019-04-28T07:10:35.764Z,3616.00
2019-04-28T07:11:35.661Z,2704.00
2019-04-28T07:12:35.557Z,2560.00
2019-04-28T07:13:35.459Z,2292.00
2019-04-28T07:14:35.357Z,2444.00
2019-04-28T07:15:35.255Z,2724.00
2019-04-28T07:16:35.155Z,2800.00
2019-04-28T07:17:35.053Z,2744.00
2019-04-28T07:18:34.952Z,2536.00
2019-04-28T07:19:34.852Z,2888.00
2019-04-28T07:20:34.751Z,2548.00
2019-04-28T07:21:34.647Z,2808.00
2019-04-28T07:22:34.549Z,2616.00
2019-04-28T07:23:34.445Z,3012.00
2019-04-28T07:24:34.343Z,2304.00
2019-04-28T07:25:34.243Z,3544.00
2019-04-28T07:26:34.150Z,4032.00
2019-04-28T07:27:34.077Z,3732.00
2019-04-28T07:28:34.000Z,3872.00
2019-04-28T07:29:33.835Z,5032.00
2019-04-28T07:30:33.733Z,5476.00
2019-04-28T07:31:33.632Z,5272.00
2019-04-28T07:32:33.531Z,5676.00
2019-04-28T07:33:36.166Z,4428.00
2019-04-28T07:34:33.330Z,4896.00
2019-04-28T07:35:33.225Z,4944.00
2019-04-28T07:36:33.126Z,4860.00
2019-04-28T07:37:33.022Z,5552.00
2019-04-28T07:38:32.922Z,5444.00
2019-04-28T07:39:32.819Z,5336.00
2019-04-28T07:40:32.718Z,4060.00
2019-04-28T07:41:32.622Z,2756.00
2019-04-28T07:42:32.517Z,2440.00
2019-04-28T07:43:32.414Z,3400.00
2019-04-28T07:44:32.317Z,4580.00
2019-04-28T07:45:32.211Z,6088.00
2019-04-28T07:46:32.109Z,5284.00
2019-04-28T07:47:32.051Z,4328.00
2019-04-28T07:48:31.986Z,4376.00
2019-04-28T07:49:31.804Z,4812.00
2019-04-28T07:50:31.703Z,5948.00
2019-04-28T07:51:31.601Z,6300.00
2019-04-28T07:52:31.499Z,7096.00
2019-04-28T07:53:31.401Z,7608.00
2019-04-28T07:54:31.296Z,7800.00
2019-04-28T07:55:31.195Z,6984.00
2019-04-28T07:56:31.094Z,8472.00
2019-04-28T07:57:30.991Z,8732.00
2019-04-28T07:58:30.888Z,9644.00
2019-04-28T07:59:30.787Z,10364.00
2019-04-28T08:00:30.694Z,9676.00
2019-04-28T08:01:30.583Z,8264.00
2019-04-28T08:02:30.483Z,8544.00
2019-04-28T08:03:30.382Z,8856.00
2019-04-28T08:04:30.286Z,8944.00
2019-04-28T08:05:30.179Z,8448.00
2019-04-28T08:06:30.077Z,9724.00
2019-04-28T08:07:30.046Z,9628.00
2019-04-28T08:08:29.878Z,9352.00
2019-04-28T08:09:29.770Z,10716.00
2019-04-28T08:10:29.672Z,10472.00
2019-04-28T08:11:29.571Z,10976.00
2019-04-28T08:12:29.466Z,11196.00
2019-04-28T08:13:29.364Z,13264.00
2019-04-28T08:14:29.261Z,13024.00
2019-04-28T08:15:29.162Z,12612.00
2019-04-28T08:16:29.059Z,14304.00
2019-04-28T08:17:28.959Z,11988.00
2019-04-28T08:18:31.496Z,12752.00
2019-04-28T08:19:28.754Z,12180.00
2019-04-28T08:20:28.655Z,11204.00
2019-04-28T08:21:28.553Z,10540.00
2019-04-28T08:22:28.452Z,11544.00
2019-04-28T08:23:28.350Z,11784.00
2019-04-28T08:24:28.249Z,11900.00
2019-04-28T08:25:28.149Z,12348.00
2019-04-28T08:26:28.047Z,12776.00
2019-04-28T08:27:27.997Z,12056.00
2019-04-28T08:28:27.854Z,13964.00
2019-04-28T08:29:27.743Z,11912.00
2019-04-28T08:30:27.644Z,8768.00
2019-04-28T08:31:27.541Z,8576.00
2019-04-28T08:32:27.442Z,7776.00
2019-04-28T08:33:27.339Z,7356.00
2019-04-28T08:34:27.238Z,10760.00
2019-04-28T08:35:27.137Z,11896.00
2019-04-28T08:36:27.035Z,11620.00
2019-04-28T08:37:26.937Z,12468.00
2019-04-28T08:38:26.837Z,13868.00
2019-04-28T08:39:26.902Z,13872.00
2019-04-28T08:40:26.633Z,14556.00
2019-04-28T08:41:26.532Z,15392.00
2019-04-28T08:42:26.438Z,15108.00
2019-04-28T08:43:26.329Z,16276.00
2019-04-28T08:44:26.233Z,14784.00
2019-04-28T08:45:26.129Z,15196.00
2019-04-28T08:46:26.045Z,16308.00
2019-04-28T08:47:25.977Z,14236.00
2019-04-28T08:48:25.909Z,15460.00
2019-04-28T08:49:25.730Z,16132.00
2019-04-28T08:50:25.628Z,16588.00
2019-04-28T08:51:25.526Z,14700.00
2019-04-28T08:52:25.426Z,15864.00
2019-04-28T08:53:25.324Z,18112.00
2019-04-28T08:54:25.226Z,18784.00
2019-04-28T08:55:25.123Z,17600.00
2019-04-28T08:56:25.024Z,15812.00
2019-04-28T08:57:24.923Z,12808.00
2019-04-28T08:58:24.826Z,11584.00
2019-04-28T08:59:24.725Z,11940.00
2019-04-28T09:00:24.677Z,13444.00
2019-04-28T09:01:24.523Z,14224.00
2019-04-28T09:02:24.422Z,17344.00
2019-04-28T09:03:24.321Z,17472.00
2019-04-28T09:04:24.219Z,16568.00
2019-04-28T09:05:24.124Z,13416.00
2019-04-28T09:06:24.022Z,13084.00
2019-04-28T09:07:23.963Z,13856.00
2019-04-28T09:08:23.861Z,14344.00
2019-04-28T09:09:23.720Z,15356.00
2019-04-28T09:10:23.621Z,16496.00
2019-04-28T09:11:23.523Z,17408.00
2019-04-28T09:12:23.420Z,19136.00
2019-04-28T09:13:23.325Z,21408.00
2019-04-28T09:14:23.220Z,23296.00
2019-04-28T09:15:23.120Z,25568.00
2019-04-28T09:16:23.023Z,26240.00
2019-04-28T09:17:22.921Z,26272.00
2019-04-28T09:18:22.845Z,28000.00
2019-04-28T09:19:22.722Z,30016.00
2019-04-28T09:20:22.622Z,30688.00
2019-04-28T09:21:22.523Z,27712.00
2019-04-28T09:22:22.426Z,29920.00
2019-04-28T09:23:22.325Z,34784.00
2019-04-28T09:24:22.222Z,37600.00
2019-04-28T09:25:22.126Z,47488.00
2019-04-28T09:26:22.023Z,38208.00
2019-04-28T09:27:21.931Z,34496.00
2019-04-28T09:28:21.868Z,29056.00
2019-04-28T09:29:21.732Z,30464.00
2019-04-28T09:30:21.633Z,25440.00
2019-04-28T09:31:21.532Z,17568.00
2019-04-28T09:32:21.435Z,18464.00
2019-04-28T09:33:21.336Z,16156.00
2019-04-28T09:34:28.110Z,14284.00
2019-04-28T09:35:21.138Z,14664.00
2019-04-28T09:36:21.044Z,17408.00
2019-04-28T09:37:20.947Z,21696.00
2019-04-28T09:38:20.845Z,23392.00
2019-04-28T09:39:23.295Z,19040.00
2019-04-28T09:40:20.650Z,21792.00
2019-04-28T09:41:20.552Z,26432.00
2019-04-28T09:42:20.453Z,27552.00
2019-04-28T09:43:20.356Z,26592.00
2019-04-28T09:44:20.256Z,26304.00
2019-04-28T09:45:20.160Z,22944.00
2019-04-28T09:46:20.062Z,21056.00
2019-04-28T09:47:20.021Z,19584.00
2019-04-28T09:48:19.906Z,19616.00
2019-04-28T09:49:19.850Z,20032.00
2019-04-28T09:50:19.669Z,19552.00
2019-04-28T09:51:19.572Z,16764.00
2019-04-28T09:52:19.472Z,16284.00
2019-04-28T09:53:19.375Z,16168.00
2019-04-28T09:54:19.279Z,15012.00
2019-04-28T09:55:19.186Z,15412.00
2019-04-28T09:56:19.085Z,14844.00
2019-04-28T09:57:18.984Z,15656.00
2019-04-28T09:58:18.889Z,16536.00
2019-04-28T09:59:18.787Z,21152.00
2019-04-28T10:00:18.688Z,23552.00
2019-04-28T10:01:18.593Z,18304.00
2019-04-28T10:02:18.491Z,13152.00
2019-04-28T10:03:18.394Z,10948.00
2019-04-28T10:04:18.297Z,12316.00
2019-04-28T10:05:18.197Z,12220.00
2019-04-28T10:06:18.104Z,10596.00
2019-04-28T10:07:18.002Z,8768.00
2019-04-28T10:08:17.903Z,7836.00
2019-04-28T10:09:17.891Z,6916.00
2019-04-28T10:10:17.707Z,6232.00
2019-04-28T10:11:29.704Z,6356.00
2019-04-28T10:12:27.012Z,7364.00
2019-04-28T10:13:17.410Z,9104.00
2019-04-28T10:14:17.312Z,9792.00
2019-04-28T10:15:17.213Z,10160.00
2019-04-28T10:16:17.110Z,11116.00
2019-04-28T10:17:17.015Z,12528.00
2019-04-28T10:18:16.916Z,15092.00
2019-04-28T10:19:16.821Z,18368.00
2019-04-28T10:20:16.719Z,19296.00
2019-04-28T10:21:16.618Z,20288.00
2019-04-28T10:22:16.524Z,21056.00
2019-04-28T10:23:16.420Z,20576.00
2019-04-28T10:24:16.322Z,18176.00
2019-04-28T10:25:16.222Z,17920.00
2019-04-28T10:26:16.123Z,17056.00
2019-04-28T10:27:16.020Z,16404.00
2019-04-28T10:28:15.923Z,16740.00
2019-04-28T10:29:15.865Z,18208.00
2019-04-28T10:30:15.781Z,21600.00
2019-04-28T10:31:15.627Z,25088.00
2019-04-28T10:32:15.527Z,27648.00
2019-04-28T10:33:15.430Z,27616.00
2019-04-28T10:34:15.331Z,27776.00
2019-04-28T10:35:15.233Z,28992.00
2019-04-28T10:36:15.133Z,30112.00
2019-04-28T10:37:15.037Z,35680.00
2019-04-28T10:38:14.937Z,34784.00
2019-04-28T10:39:14.837Z,31808.00
2019-04-28T10:40:14.742Z,31776.00
2019-04-28T10:41:14.643Z,33152.00
2019-04-28T10:42:14.547Z,34208.00
2019-04-28T10:43:14.450Z,43456.00
2019-04-28T10:44:14.349Z,35488.00
2019-04-28T10:45:14.254Z,33248.00
2019-04-28T10:46:14.151Z,23424.00
2019-04-28T10:47:14.059Z,21472.00
2019-04-28T10:48:13.962Z,20640.00
2019-04-28T10:49:13.863Z,17760.00
2019-04-28T10:50:13.836Z,16568.00
2019-04-28T10:51:13.673Z,17824.00
2019-04-28T10:52:13.573Z,18272.00
2019-04-28T10:53:13.480Z,19072.00
2019-04-28T10:54:13.378Z,18656.00
2019-04-28T10:55:13.281Z,18944.00
2019-04-28T10:56:13.187Z,18720.00
2019-04-28T10:57:13.092Z,19328.00
2019-04-28T10:58:12.990Z,21344.00
2019-04-28T10:59:12.892Z,25152.00
2019-04-28T11:00:12.796Z,53568.00
2019-04-28T11:01:12.700Z,32992.00
2019-04-28T11:02:12.603Z,32192.00
2019-04-28T11:03:12.507Z,30592.00
2019-04-28T11:04:12.410Z,26464.00
2019-04-28T11:05:12.313Z,20288.00
2019-04-28T11:06:12.678Z,15776.00
2019-04-28T11:07:12.116Z,14964.00
2019-04-28T11:08:12.020Z,14048.00
2019-04-28T11:09:11.928Z,13436.00
2019-04-28T11:10:11.829Z,13708.00
2019-04-28T11:11:11.803Z,11396.00
2019-04-28T11:12:11.631Z,9412.00
2019-04-28T11:13:11.536Z,9100.00
2019-04-28T11:14:14.134Z,10156.00
2019-04-28T11:15:11.341Z,11592.00
2019-04-28T11:16:11.246Z,14672.00
2019-04-28T11:17:11.149Z,19136.00
2019-04-28T11:18:11.050Z,30656.00
2019-04-28T11:19:10.953Z,24224.00
2019-04-28T11:20:10.859Z,21792.00
2019-04-28T11:21:10.757Z,19424.00
2019-04-28T11:22:10.662Z,17184.00
2019-04-28T11:23:10.562Z,16172.00
2019-04-28T11:24:10.466Z,16736.00
2019-04-28T11:25:10.368Z,17216.00
2019-04-28T11:26:10.271Z,15840.00
2019-04-28T11:27:10.171Z,13780.00
2019-04-28T11:28:10.075Z,11524.00
2019-04-28T11:29:09.978Z,9284.00
2019-04-28T11:30:09.880Z,8160.00
2019-04-28T11:31:09.781Z,9116.00
2019-04-28T11:32:09.707Z,10640.00
2019-04-28T11:33:09.586Z,11284.00
2019-04-28T11:34:09.491Z,11236.00
2019-04-28T11:35:20.939Z,11688.00
2019-04-28T11:36:09.298Z,12480.00
2019-04-28T11:37:09.196Z,13064.00
2019-04-28T11:38:09.097Z,13172.00
2019-04-28T11:39:08.998Z,12840.00
2019-04-28T11:40:08.900Z,13244.00
2019-04-28T11:41:11.421Z,13596.00
2019-04-28T11:42:08.707Z,13928.00
2019-04-28T11:43:08.605Z,14432.00
2019-04-28T11:44:08.509Z,14708.00
2019-04-28T11:45:08.411Z,14972.00
2019-04-28T11:46:08.313Z,14652.00
2019-04-28T11:47:08.212Z,13940.00
2019-04-28T11:48:08.116Z,13524.00
2019-04-28T11:49:08.021Z,13144.00
2019-04-28T11:50:07.920Z,13084.00
2019-04-28T11:51:07.823Z,12804.00
2019-04-28T11:52:07.749Z,12968.00
2019-04-28T11:53:07.671Z,13124.00
2019-04-28T11:54:07.525Z,12736.00
2019-04-28T11:55:07.427Z,11264.00
2019-04-28T11:56:07.328Z,12576.00
2019-04-28T11:57:07.231Z,13724.00
2019-04-28T11:58:07.134Z,13520.00
2019-04-28T11:59:07.036Z,12836.00
2019-04-28T12:00:06.937Z,12428.00
2019-04-28T12:01:06.840Z,12328.00
2019-04-28T12:02:06.741Z,12288.00
2019-04-28T12:03:06.641Z,12736.00
2019-04-28T12:04:06.541Z,12904.00
2019-04-28T12:05:06.446Z,12928.00
2019-04-28T12:06:06.348Z,13328.00
2019-04-28T12:07:06.247Z,13588.00
2019-04-28T12:08:06.149Z,14184.00
2019-04-28T12:09:06.050Z,14968.00
2019-04-28T12:10:06.578Z,15596.00
2019-04-28T12:11:05.855Z,16336.00
2019-04-28T12:12:08.472Z,17664.00
2019-04-28T12:13:05.724Z,19456.00
2019-04-28T12:14:05.556Z,21056.00
2019-04-28T12:15:05.456Z,22592.00
2019-04-28T12:16:05.356Z,23584.00
2019-04-28T12:17:05.260Z,25472.00
2019-04-28T12:18:05.164Z,27232.00
2019-04-28T12:19:05.069Z,28448.00
2019-04-28T12:20:04.967Z,28352.00